Terminal Aerodrome Forecast
Issued by NWS Mobile, AL

Home | Current Version | Previous Version | Text Only | Print | Product List | Glossary On
Versions: 1 2 3 4 5 6 7 8 9 10 11 12 13 14 15 16 17 18 19 20 21 22 23 24 25 26 27 28 29 30 31 32 33 34 35 36 37 38
000
FTUS44 KMOB 230536
TAFPNS
TAF
KPNS 230536Z 2306/2406 28012G18KT P6SM FEW060 SCT250
     FM230800 29020G30KT P6SM VCSH BKN025
     FM231500 31017G25KT P6SM SCT025
     FM232300 32011KT P6SM SKC=

USA.gov is the U.S. government's official web portal to all federal, state and local government web resources and services.